createdAt,value
2023-03-27T00:02:29.275Z,50.37
2023-03-27T00:04:56.845Z,50.85
2023-03-27T00:07:24.533Z,50.18
2023-03-27T00:09:53.861Z,50.42
2023-03-27T00:12:22.909Z,50.59
2023-03-27T00:14:50.620Z,50.55
2023-03-27T00:17:19.789Z,50.45
2023-03-27T00:19:47.456Z,50.65
2023-03-27T00:22:15.668Z,50.58
2023-03-27T00:24:43.974Z,50.84
2023-03-27T00:27:11.643Z,50.76
2023-03-27T00:29:41.250Z,50.73
2023-03-27T00:32:09.317Z,51.10
2023-03-27T00:34:37.511Z,50.88
2023-03-27T00:37:05.726Z,50.58
2023-03-27T00:39:34.393Z,50.72
2023-03-27T00:42:02.204Z,50.88
2023-03-27T00:44:34.200Z,50.88
2023-03-27T00:47:05.639Z,51.04
2023-03-27T00:49:36.826Z,50.67
2023-03-27T00:52:07.555Z,50.90
2023-03-27T00:54:40.248Z,51.06
2023-03-27T00:57:13.343Z,51.38
2023-03-27T00:59:44.988Z,50.74
2023-03-27T01:02:15.240Z,51.66
2023-03-27T01:04:44.511Z,51.59
2023-03-27T01:07:12.590Z,51.68
2023-03-27T01:12:39.221Z,50.80
2023-03-27T01:15:27.376Z,50.90
2023-03-27T01:18:11.065Z,51.76
2023-03-27T01:21:00.010Z,52.35
2023-03-27T01:24:11.806Z,52.20
2023-03-27T01:27:02.137Z,52.45
2023-03-27T01:29:48.474Z,53.49
2023-03-27T01:32:37.613Z,53.60
2023-03-27T01:35:46.980Z,53.64
2023-03-27T01:39:06.305Z,53.44
2023-03-27T01:41:41.998Z,53.60
2023-03-27T01:44:16.421Z,54.28
2023-03-27T01:46:51.037Z,53.71
2023-03-27T01:49:26.861Z,53.75
2023-03-27T01:51:59.580Z,54.28
2023-03-27T01:54:32.224Z,54.31
2023-03-27T01:57:04.864Z,53.95
2023-03-27T01:59:38.006Z,53.92
2023-03-27T02:02:11.400Z,53.94
2023-03-27T02:04:45.687Z,54.08
2023-03-27T02:07:19.736Z,53.44
2023-03-27T02:09:51.422Z,54.01
2023-03-27T02:12:24.501Z,53.43
2023-03-27T02:14:56.392Z,53.02
2023-03-27T02:17:27.016Z,53.37
2023-03-27T02:20:00.280Z,53.55
2023-03-27T02:22:38.013Z,53.06
2023-03-27T02:25:23.638Z,53.63
2023-03-27T02:28:03.278Z,52.98
2023-03-27T02:30:32.820Z,53.12
2023-03-27T02:33:15.634Z,53.25
2023-03-27T02:35:54.794Z,53.57
2023-03-27T02:38:28.560Z,53.44
2023-03-27T02:41:06.427Z,53.86
2023-03-27T02:43:38.903Z,54.04
2023-03-27T02:46:14.053Z,54.48
2023-03-27T02:48:46.473Z,54.34
2023-03-27T02:51:19.522Z,54.76
2023-03-27T02:53:51.728Z,54.52
2023-03-27T02:56:24.089Z,54.41
2023-03-27T02:58:58.572Z,54.33
2023-03-27T03:01:27.743Z,54.85
2023-03-27T03:04:00.000Z,54.41
2023-03-27T03:06:30.059Z,54.51
2023-03-27T03:09:03.039Z,54.65
2023-03-27T03:11:31.616Z,55.06
2023-03-27T03:14:01.095Z,54.90
2023-03-27T03:16:29.701Z,54.48
2023-03-27T03:18:57.781Z,54.71
2023-03-27T03:21:25.457Z,54.66
2023-03-27T03:23:57.520Z,54.90
2023-03-27T03:26:26.577Z,54.89
2023-03-27T03:29:01.000Z,54.56
2023-03-27T03:31:44.158Z,55.50
2023-03-27T03:34:12.665Z,55.35
2023-03-27T03:36:41.917Z,55.40
2023-03-27T03:39:11.357Z,55.18
2023-03-27T03:41:39.076Z,55.47
2023-03-27T03:44:06.839Z,55.78
2023-03-27T03:46:35.943Z,55.46
2023-03-27T03:49:04.670Z,55.91
2023-03-27T03:51:32.429Z,55.65
2023-03-27T03:54:01.281Z,54.85
2023-03-27T03:56:30.881Z,54.90
2023-03-27T03:58:59.093Z,55.58
2023-03-27T04:01:27.972Z,54.75
2023-03-27T04:03:57.043Z,55.34
2023-03-27T04:06:25.594Z,55.72
2023-03-27T04:08:53.777Z,55.18
2023-03-27T04:11:21.695Z,55.67
2023-03-27T04:13:49.604Z,55.33
2023-03-27T04:16:17.323Z,55.47
2023-03-27T04:18:45.328Z,55.11
2023-03-27T04:21:15.549Z,55.17
2023-03-27T04:23:44.817Z,55.30
2023-03-27T04:26:13.491Z,56.00
2023-03-27T04:28:41.212Z,55.49
2023-03-27T04:31:10.911Z,55.45
2023-03-27T04:33:46.272Z,55.40
2023-03-27T04:36:15.724Z,55.60
2023-03-27T04:38:43.543Z,56.02
2023-03-27T04:41:11.470Z,55.96
2023-03-27T04:43:40.250Z,54.66
2023-03-27T04:46:09.132Z,54.72
2023-03-27T04:48:38.523Z,54.99
2023-03-27T04:51:09.222Z,54.59
2023-03-27T04:53:38.846Z,54.07
2023-03-27T04:56:08.253Z,53.86
2023-03-27T04:58:37.527Z,53.56
2023-03-27T05:01:06.122Z,53.71
2023-03-27T05:03:34.681Z,54.04
2023-03-27T05:06:04.167Z,53.64
2023-03-27T05:08:32.590Z,53.41
2023-03-27T05:11:01.775Z,53.74
2023-03-27T05:13:29.548Z,53.71
2023-03-27T05:15:59.097Z,53.79
2023-03-27T05:18:27.772Z,54.07
2023-03-27T05:20:57.159Z,53.79
2023-03-27T05:23:24.967Z,52.92
2023-03-27T05:25:59.819Z,53.48
2023-03-27T05:28:30.240Z,53.51
2023-03-27T05:30:58.880Z,53.74
2023-03-27T05:33:26.864Z,53.92
2023-03-27T05:35:54.599Z,53.29
2023-03-27T05:38:24.810Z,53.45
2023-03-27T05:40:53.240Z,54.16
2023-03-27T05:43:21.294Z,53.54
2023-03-27T05:45:50.695Z,53.96
2023-03-27T05:48:18.437Z,53.96
2023-03-27T05:50:46.221Z,54.10
2023-03-27T05:53:16.014Z,54.64
2023-03-27T05:55:43.695Z,54.36
2023-03-27T05:58:13.245Z,53.99
2023-03-27T06:00:43.092Z,54.69
2023-03-27T06:03:13.777Z,55.18
2023-03-27T06:05:42.768Z,55.10
2023-03-27T06:08:11.596Z,54.57
2023-03-27T06:10:42.138Z,54.79
2023-03-27T06:13:12.429Z,54.67
2023-03-27T06:15:42.371Z,53.70
2023-03-27T06:18:12.204Z,53.87
2023-03-27T06:20:41.374Z,53.94
2023-03-27T06:23:09.401Z,54.57
2023-03-27T06:25:39.934Z,53.96
2023-03-27T06:28:09.962Z,54.09
2023-03-27T06:30:38.893Z,54.32
2023-03-27T06:33:08.593Z,54.94
2023-03-27T06:35:38.339Z,55.10
2023-03-27T06:38:06.532Z,54.89
2023-03-27T06:40:36.016Z,54.36
2023-03-27T06:43:05.713Z,55.16
2023-03-27T06:45:34.243Z,55.21
2023-03-27T06:48:12.964Z,54.73
2023-03-27T06:50:47.775Z,55.47
2023-03-27T06:53:26.588Z,55.11
2023-03-27T06:55:56.842Z,55.63
2023-03-27T06:58:25.331Z,55.25
2023-03-27T07:00:53.159Z,55.72
2023-03-27T07:03:22.707Z,55.58
2023-03-27T07:05:51.795Z,54.93
2023-03-27T07:08:24.158Z,55.16
2023-03-27T07:13:24.345Z,54.58
2023-03-27T07:15:52.125Z,54.35
2023-03-27T07:18:21.951Z,53.84
2023-03-27T07:20:51.279Z,53.84
2023-03-27T07:23:18.977Z,53.72
2023-03-27T07:25:50.388Z,53.13
2023-03-27T07:28:18.462Z,52.86
2023-03-27T07:30:47.683Z,52.94
2023-03-27T07:33:16.194Z,52.82
2023-03-27T07:35:44.641Z,52.67
2023-03-27T07:38:14.212Z,52.64
2023-03-27T07:40:43.859Z,52.93
2023-03-27T07:43:11.559Z,52.37
2023-03-27T07:45:39.350Z,51.91
2023-03-27T07:48:08.454Z,52.05
2023-03-27T07:50:37.735Z,52.29
2023-03-27T07:53:06.832Z,53.16
2023-03-27T07:55:38.332Z,52.90
2023-03-27T07:58:07.311Z,53.83
2023-03-27T08:00:36.371Z,54.62
2023-03-27T08:03:08.671Z,54.81
2023-03-27T08:05:37.190Z,54.90
2023-03-27T08:08:06.029Z,55.46
2023-03-27T08:10:34.429Z,55.69
2023-03-27T08:13:04.040Z,56.53
2023-03-27T08:15:31.879Z,55.84
2023-03-27T08:18:01.288Z,57.32
2023-03-27T08:20:30.384Z,57.33
2023-03-27T08:22:58.532Z,56.23
2023-03-27T08:25:27.930Z,56.71
2023-03-27T08:27:56.025Z,57.27
2023-03-27T08:30:25.473Z,57.69
2023-03-27T08:32:54.008Z,56.66
2023-03-27T08:35:22.183Z,56.68
2023-03-27T08:37:50.569Z,56.88
2023-03-27T08:40:26.583Z,56.48
2023-03-27T08:42:58.342Z,55.16
2023-03-27T08:45:31.781Z,55.84
2023-03-27T08:48:05.638Z,53.35
2023-03-27T08:50:39.302Z,53.03
2023-03-27T08:53:15.812Z,52.47
2023-03-27T08:55:45.890Z,51.55
2023-03-27T08:58:20.081Z,51.83
2023-03-27T09:00:56.849Z,51.26
2023-03-27T09:03:29.993Z,51.25
2023-03-27T09:06:03.427Z,50.25
2023-03-27T09:08:44.028Z,50.89
2023-03-27T09:11:28.134Z,51.19
2023-03-27T09:13:56.377Z,50.08
2023-03-27T09:16:29.931Z,50.22
2023-03-27T09:19:05.047Z,50.81
2023-03-27T09:21:41.825Z,50.41
2023-03-27T09:24:16.796Z,50.16
2023-03-27T09:26:45.443Z,49.93
2023-03-27T09:29:20.368Z,49.21
2023-03-27T09:31:51.840Z,48.61
2023-03-27T09:34:25.339Z,49.38
2023-03-27T09:36:54.909Z,46.66
2023-03-27T09:39:27.584Z,46.54
2023-03-27T09:41:59.837Z,47.65
2023-03-27T09:44:34.508Z,47.80
2023-03-27T09:47:14.470Z,46.90
2023-03-27T09:49:48.166Z,47.24
2023-03-27T09:52:35.520Z,46.69
2023-03-27T09:55:04.813Z,46.05
2023-03-27T09:57:35.014Z,46.05
2023-03-27T10:00:14.620Z,44.89
2023-03-27T10:02:43.775Z,46.00
2023-03-27T10:05:19.264Z,43.75
2023-03-27T10:07:48.551Z,44.26
2023-03-27T10:10:19.794Z,45.42
2023-03-27T10:12:54.368Z,44.03
2023-03-27T10:15:34.715Z,44.87
2023-03-27T10:18:07.396Z,44.35
2023-03-27T10:20:35.850Z,44.30
2023-03-27T10:23:08.404Z,44.90
2023-03-27T10:25:40.221Z,43.89
2023-03-27T10:28:11.829Z,44.20
2023-03-27T10:30:40.777Z,44.39
2023-03-27T10:33:10.563Z,41.99
2023-03-27T10:35:44.565Z,44.82
2023-03-27T10:38:15.428Z,46.47
2023-03-27T10:40:49.438Z,46.21
2023-03-27T10:43:26.155Z,46.38
2023-03-27T10:45:58.096Z,46.54
2023-03-27T10:48:41.095Z,47.13
2023-03-27T10:51:33.181Z,47.54
2023-03-27T10:54:16.788Z,48.87
2023-03-27T10:56:55.361Z,49.16
2023-03-27T10:59:41.139Z,49.81
2023-03-27T11:02:17.117Z,50.83
2023-03-27T11:04:53.926Z,50.65
2023-03-27T11:07:29.940Z,51.04
2023-03-27T11:10:05.559Z,51.69
2023-03-27T11:12:38.617Z,52.26
2023-03-27T11:15:13.959Z,52.67
2023-03-27T11:17:47.655Z,53.55
2023-03-27T11:20:25.788Z,51.84
2023-03-27T11:22:59.432Z,51.91
2023-03-27T11:25:36.456Z,51.14
2023-03-27T11:28:15.941Z,52.80
2023-03-27T11:30:46.991Z,51.71
2023-03-27T11:33:29.150Z,52.36
2023-03-27T11:36:06.773Z,50.60
2023-03-27T11:38:40.436Z,49.69
2023-03-27T11:41:14.684Z,47.80
2023-03-27T11:43:43.894Z,48.60
2023-03-27T11:46:24.564Z,48.42
2023-03-27T11:49:05.179Z,48.27
2023-03-27T11:51:48.438Z,48.19
2023-03-27T11:54:30.279Z,47.94
2023-03-27T11:57:00.376Z,48.12
2023-03-27T11:59:52.101Z,48.10
2023-03-27T12:02:41.421Z,48.11
2023-03-27T12:05:21.929Z,48.85
2023-03-27T12:08:00.561Z,48.45
2023-03-27T12:10:33.433Z,47.60
2023-03-27T12:13:41.342Z,47.75
2023-03-27T12:16:27.293Z,47.50
2023-03-27T12:19:17.385Z,46.24
2023-03-27T12:22:22.478Z,46.31
2023-03-27T12:25:09.652Z,46.34
2023-03-27T12:28:03.014Z,46.94
2023-03-27T12:30:41.880Z,46.65
2023-03-27T12:33:33.283Z,44.05
2023-03-27T12:36:05.718Z,44.14
2023-03-27T12:38:40.581Z,44.14
2023-03-27T12:41:22.885Z,44.73
2023-03-27T12:43:57.304Z,44.02
2023-03-27T12:46:39.053Z,42.99
2023-03-27T12:49:47.916Z,42.99
2023-03-27T12:52:19.367Z,41.80
2023-03-27T12:55:07.141Z,42.25
2023-03-27T12:57:44.202Z,42.38
2023-03-27T13:00:22.795Z,42.26
2023-03-27T13:03:19.727Z,43.28
2023-03-27T13:06:07.737Z,42.27
2023-03-27T13:08:50.339Z,43.38
2023-03-27T13:11:31.938Z,42.01
2023-03-27T13:14:28.907Z,41.92
2023-03-27T13:17:16.175Z,43.37
2023-03-27T13:19:56.414Z,43.58
2023-03-27T13:22:37.042Z,42.42
2023-03-27T13:25:26.421Z,41.82
2023-03-27T13:28:33.226Z,43.54
2023-03-27T13:31:04.463Z,42.72
2023-03-27T13:33:46.433Z,43.17
2023-03-27T13:36:17.749Z,45.73
2023-03-27T13:39:18.390Z,46.04
2023-03-27T13:42:12.792Z,47.52
2023-03-27T13:45:02.379Z,47.22
2023-03-27T13:47:54.371Z,47.11
2023-03-27T13:50:51.582Z,47.02
2023-03-27T13:53:43.896Z,47.62
2023-03-27T13:56:28.002Z,48.26
2023-03-27T13:59:28.098Z,48.05
2023-03-27T14:02:05.222Z,47.22
2023-03-27T14:04:59.431Z,47.38
2023-03-27T14:07:55.983Z,47.99
2023-03-27T14:10:38.220Z,47.98
2023-03-27T14:13:23.710Z,47.95
2023-03-27T14:16:10.358Z,46.73
2023-03-27T14:18:49.821Z,46.04
2023-03-27T14:21:35.476Z,47.25
2023-03-27T14:24:09.847Z,46.09
2023-03-27T14:26:42.338Z,45.67
2023-03-27T14:29:11.600Z,45.50
2023-03-27T14:31:44.262Z,45.33
2023-03-27T14:34:23.032Z,45.86
2023-03-27T14:36:53.147Z,45.57
2023-03-27T14:39:24.092Z,45.85
2023-03-27T14:41:55.921Z,46.05
2023-03-27T14:44:26.398Z,45.06
2023-03-27T14:47:00.422Z,45.80
2023-03-27T14:49:37.428Z,45.14
2023-03-27T14:52:09.144Z,45.90
2023-03-27T14:54:52.270Z,45.31
2023-03-27T14:57:26.110Z,45.35
2023-03-27T14:59:55.933Z,45.10
2023-03-27T15:02:30.596Z,45.57
2023-03-27T15:05:04.645Z,45.75
2023-03-27T15:07:37.840Z,46.39
2023-03-27T15:10:21.103Z,45.90
2023-03-27T15:12:49.751Z,44.63
2023-03-27T15:15:34.677Z,44.20
2023-03-27T15:18:05.494Z,42.54
2023-03-27T15:20:37.455Z,42.26
2023-03-27T15:23:19.132Z,42.63
2023-03-27T15:25:56.344Z,42.72
2023-03-27T15:28:29.697Z,43.33
2023-03-27T15:31:01.477Z,43.50
2023-03-27T15:33:34.463Z,43.66
2023-03-27T15:36:08.011Z,43.90
2023-03-27T15:38:38.534Z,44.19
2023-03-27T15:41:40.124Z,44.35
2023-03-27T15:44:12.935Z,43.94
2023-03-27T15:46:55.960Z,43.61
2023-03-27T15:49:28.013Z,43.62
2023-03-27T15:51:58.389Z,43.16
2023-03-27T15:54:34.066Z,43.26
2023-03-27T15:57:09.561Z,42.45
2023-03-27T15:59:53.067Z,41.35
2023-03-27T16:05:17.685Z,42.12
2023-03-27T16:07:49.287Z,42.18
2023-03-27T16:10:30.587Z,42.48
2023-03-27T16:13:02.935Z,42.64
2023-03-27T16:15:33.289Z,43.30
2023-03-27T16:18:04.679Z,43.34
2023-03-27T16:20:37.476Z,43.95
2023-03-27T16:23:06.743Z,44.24
2023-03-27T16:25:36.450Z,44.34
2023-03-27T16:28:04.336Z,43.87
2023-03-27T16:30:36.271Z,43.81
2023-03-27T16:33:04.821Z,43.72
2023-03-27T16:35:33.972Z,43.92
2023-03-27T16:38:02.804Z,44.31
2023-03-27T16:40:30.864Z,44.40
2023-03-27T16:43:00.593Z,44.57
2023-03-27T16:45:28.353Z,45.02
2023-03-27T16:47:56.611Z,44.70
2023-03-27T16:50:26.745Z,44.24
2023-03-27T16:52:54.926Z,44.26
2023-03-27T16:55:23.131Z,43.67
2023-03-27T16:57:52.470Z,44.45
2023-03-27T17:00:23.494Z,44.16
2023-03-27T17:02:51.683Z,44.95
2023-03-27T17:05:19.704Z,44.87
2023-03-27T17:07:48.851Z,44.51
2023-03-27T17:10:17.199Z,44.66
2023-03-27T17:12:45.530Z,44.27
2023-03-27T17:15:15.808Z,44.41
2023-03-27T17:17:45.420Z,44.02
2023-03-27T17:20:13.494Z,44.09
2023-03-27T17:22:41.806Z,43.28
2023-03-27T17:25:10.875Z,43.46
2023-03-27T17:27:39.975Z,42.98
2023-03-27T17:30:09.765Z,42.34
2023-03-27T17:32:37.999Z,43.12
2023-03-27T17:35:08.064Z,43.51
2023-03-27T17:37:37.273Z,43.16
2023-03-27T17:40:09.733Z,43.65
2023-03-27T17:42:38.465Z,43.36
2023-03-27T17:45:07.595Z,43.63
2023-03-27T17:47:35.928Z,43.95
2023-03-27T17:50:04.616Z,43.55
2023-03-27T17:52:34.683Z,43.97
2023-03-27T17:55:02.480Z,43.83
2023-03-27T17:57:31.410Z,44.17
2023-03-27T17:59:59.610Z,44.38
2023-03-27T18:02:27.656Z,44.77
2023-03-27T18:04:56.453Z,44.77
2023-03-27T18:07:25.003Z,44.66
2023-03-27T18:09:54.382Z,45.02
2023-03-27T18:12:23.094Z,44.87
2023-03-27T18:14:51.392Z,45.22
2023-03-27T18:17:21.231Z,45.54
2023-03-27T18:19:49.243Z,45.51
2023-03-27T18:22:17.630Z,45.30
2023-03-27T18:24:45.593Z,45.45
2023-03-27T18:27:17.024Z,45.70
2023-03-27T18:29:45.024Z,45.76
2023-03-27T18:32:13.161Z,45.57
2023-03-27T18:34:41.881Z,45.78
2023-03-27T18:37:09.992Z,45.73
2023-03-27T18:39:38.162Z,46.00
2023-03-27T18:42:06.834Z,45.79
2023-03-27T18:44:38.086Z,46.10
2023-03-27T18:47:06.166Z,46.15
2023-03-27T18:49:34.524Z,46.51
2023-03-27T18:52:02.489Z,46.82
2023-03-27T18:54:30.529Z,46.48
2023-03-27T18:56:59.010Z,46.82
2023-03-27T18:59:27.300Z,47.15
2023-03-27T19:01:57.024Z,46.84
2023-03-27T19:04:25.690Z,47.11
2023-03-27T19:06:53.863Z,46.86
2023-03-27T19:09:28.214Z,47.36
2023-03-27T19:12:07.471Z,47.41
2023-03-27T19:14:35.777Z,47.41
2023-03-27T19:17:06.010Z,47.28
2023-03-27T19:19:34.778Z,47.46
2023-03-27T19:22:05.998Z,47.60
2023-03-27T19:24:34.074Z,47.07
2023-03-27T19:27:02.798Z,46.89
2023-03-27T19:29:31.306Z,46.99
2023-03-27T19:31:59.617Z,46.88
2023-03-27T19:34:42.145Z,46.90
2023-03-27T19:37:11.124Z,46.45
2023-03-27T19:39:39.777Z,46.97
2023-03-27T19:42:07.763Z,46.93
2023-03-27T19:44:38.128Z,46.46
2023-03-27T19:47:07.974Z,47.16
2023-03-27T19:49:37.945Z,47.09
2023-03-27T19:52:07.274Z,47.29
2023-03-27T19:54:35.665Z,47.10
2023-03-27T19:57:03.706Z,46.71
2023-03-27T19:59:31.699Z,46.56
2023-03-27T20:02:00.787Z,46.78
2023-03-27T20:04:29.083Z,47.50
2023-03-27T20:06:59.089Z,47.04
2023-03-27T20:09:27.345Z,46.20
2023-03-27T20:11:55.257Z,46.59
2023-03-27T20:14:23.375Z,47.13
2023-03-27T20:16:52.713Z,46.19
2023-03-27T20:19:22.038Z,46.48
2023-03-27T20:21:50.517Z,46.52
2023-03-27T20:24:20.568Z,46.47
2023-03-27T20:26:52.367Z,46.88
2023-03-27T20:29:24.199Z,46.58
2023-03-27T20:31:52.259Z,46.64
2023-03-27T20:34:22.537Z,47.02
2023-03-27T20:36:53.568Z,47.10
2023-03-27T20:39:23.142Z,47.46
2023-03-27T20:41:51.325Z,47.57
2023-03-27T20:44:19.683Z,47.81
2023-03-27T20:46:52.065Z,48.48
2023-03-27T20:51:57.869Z,48.65
2023-03-27T20:54:27.711Z,48.79
2023-03-27T20:56:55.992Z,48.70
2023-03-27T20:59:24.277Z,48.69
2023-03-27T21:01:52.754Z,48.12
2023-03-27T21:04:21.728Z,48.54
2023-03-27T21:06:49.927Z,48.05
2023-03-27T21:09:18.668Z,48.41
2023-03-27T21:11:48.371Z,49.10
2023-03-27T21:14:16.460Z,48.42
2023-03-27T21:16:44.945Z,49.21
2023-03-27T21:19:13.201Z,49.20
2023-03-27T21:21:41.317Z,48.91
2023-03-27T21:24:10.350Z,48.84
2023-03-27T21:26:38.609Z,48.63
2023-03-27T21:29:11.294Z,49.56
2023-03-27T21:31:39.628Z,49.05
2023-03-27T21:34:08.425Z,49.25
2023-03-27T21:36:38.951Z,48.75
2023-03-27T21:39:08.641Z,48.65
2023-03-27T21:41:36.777Z,48.28
2023-03-27T21:44:05.610Z,48.89
2023-03-27T21:46:35.119Z,48.76
2023-03-27T21:49:03.348Z,48.92
2023-03-27T21:51:32.417Z,49.83
2023-03-27T21:54:00.559Z,49.38
2023-03-27T21:56:28.486Z,49.51
2023-03-27T21:58:58.096Z,50.01
2023-03-27T22:01:26.627Z,49.92
2023-03-27T22:04:02.483Z,49.29
2023-03-27T22:06:31.671Z,50.21
2023-03-27T22:08:59.776Z,49.67
2023-03-27T22:11:28.341Z,50.30
2023-03-27T22:13:56.330Z,50.21
2023-03-27T22:16:25.629Z,50.52
2023-03-27T22:18:55.678Z,50.27
2023-03-27T22:21:25.718Z,49.83
2023-03-27T22:23:56.193Z,50.16
2023-03-27T22:26:26.545Z,50.24
2023-03-27T22:28:54.875Z,49.74
2023-03-27T22:31:23.725Z,50.52
2023-03-27T22:33:52.280Z,50.73
2023-03-27T22:36:21.878Z,50.04
2023-03-27T22:38:50.233Z,50.03
2023-03-27T22:41:18.285Z,49.65
2023-03-27T22:43:49.251Z,50.35
2023-03-27T22:46:20.555Z,50.02
2023-03-27T22:48:48.667Z,50.42
2023-03-27T22:51:16.835Z,50.19
2023-03-27T22:53:47.216Z,50.33
2023-03-27T22:56:15.703Z,50.22
2023-03-27T22:58:43.511Z,51.20
2023-03-27T23:01:12.613Z,50.59
2023-03-27T23:03:41.051Z,51.33
2023-03-27T23:06:17.623Z,50.81
2023-03-27T23:08:48.681Z,50.50
2023-03-27T23:11:18.138Z,50.96
2023-03-27T23:13:46.605Z,50.66
2023-03-27T23:16:15.110Z,50.55
2023-03-27T23:18:43.979Z,50.27
2023-03-27T23:21:14.268Z,50.63
2023-03-27T23:23:42.423Z,50.27
2023-03-27T23:26:13.150Z,50.92
2023-03-27T23:28:43.105Z,51.60
2023-03-27T23:31:14.660Z,50.72
2023-03-27T23:33:44.709Z,51.30
2023-03-27T23:36:15.401Z,51.41
2023-03-27T23:38:43.985Z,51.18
2023-03-27T23:41:15.303Z,51.42
2023-03-27T23:43:44.318Z,51.46
2023-03-27T23:46:12.847Z,51.70
2023-03-27T23:48:43.245Z,51.38
2023-03-27T23:51:13.826Z,51.22
2023-03-27T23:53:42.047Z,51.68
2023-03-27T23:56:11.163Z,51.15
2023-03-27T23:58:41.185Z,51.23
